^^
Station Historical Data
Daily Summary for April 17, 2017 Units:  English    Metric   Both
« Previous Day
Next Day »
Daily Weekly Monthly Yearly Custom
  High: Low: Average:
Temperature: 69.7 °F 55.8 °F 64.3 °F
Dew Point: 58.3 °F 29.2 °F 44.3 °F
Humidity: 90% 28% 53%
Wind Speed: 8.0mph 0.0mph 1.9mph
Wind Gust: 20.0mph - -
Wind- - SSW
Pressure: 30.16 in 29.85 in -
Precipitation: 0.00 in    
Historical Graphs
 
 
Tabular Data for April 17, 2017
Time Temperature Dew Point Pressure Wind Wind Speed Wind Gust Humidity Rainfall Rate (Hourly) Conditions
00:00 65.0 °F 58.3 °F 29.85 in SSE 1.0 mph 4.0 mph 79% 0.00 in RA
00:15 64.8 °F 58.1 °F 29.86 in Calm   3.0 mph 79% 0.00 in SCT
00:30 64.4 °F 57.7 °F 29.86 in Calm   3.0 mph 79% 0.00 in SCT
00:45 64.1 °F 57.8 °F 29.86 in SSW 1.0 mph 3.0 mph 80% 0.00 in SCT
01:00 64.3 °F 57.6 °F 29.86 in Calm   4.0 mph 79% 0.00 in SCT
02:15 63.3 °F 57.7 °F 29.85 in Calm   5.0 mph 82% 0.00 in CLR
02:30 63.2 °F 57.6 °F 29.85 in Calm   2.0 mph 82% 0.00 in CLR
02:45 63.1 °F 57.9 °F 29.85 in Calm   5.0 mph 83% 0.00 in CLR
03:00 62.9 °F 58.0 °F 29.85 in Calm   3.0 mph 84% 0.00 in CLR
03:15 63.0 °F 58.1 °F 29.85 in Calm   4.0 mph 84% 0.00 in CLR
03:30 62.7 °F 58.1 °F 29.85 in SSE 1.0 mph 3.0 mph 85% 0.00 in CLR
03:45 62.5 °F 58.3 °F 29.85 in Calm   3.0 mph 86% 0.00 in CLR
04:00 62.2 °F 58.0 °F 29.85 in Calm   1.0 mph 86% 0.00 in CLR
04:15 61.4 °F 57.8 °F 29.85 in Calm   1.0 mph 88% 0.00 in CLR
04:30 61.6 °F 58.0 °F 29.85 in Calm   1.0 mph 88% 0.00 in CLR
04:45 61.0 °F 57.4 °F 29.85 in Calm   1.0 mph 88% 0.00 in CLR
05:00 61.1 °F 57.8 °F 29.86 in Calm   3.0 mph 89% 0.00 in CLR
05:15 61.4 °F 58.1 °F 29.86 in Calm   2.0 mph 89% 0.00 in CLR
05:30 61.6 °F 58.0 °F 29.86 in South 1.0 mph 5.0 mph 88% 0.00 in CLR
05:45 61.2 °F 57.6 °F 29.88 in South 1.0 mph 3.0 mph 88% 0.00 in CLR
06:00 60.6 °F 57.0 °F 29.88 in Calm   2.0 mph 88% 0.00 in CLR
06:15 60.1 °F 57.2 °F 29.90 in Calm   1.0 mph 90% 0.00 in CLR
06:30 61.0 °F 57.4 °F 29.90 in NE 1.0 mph 5.0 mph 88% 0.00 in CLR
06:45 61.8 °F 57.2 °F 29.91 in Calm   7.0 mph 85% 0.00 in CLR
07:00 61.9 °F 57.0 °F 29.92 in Calm   2.0 mph 84% 0.00 in CLR
07:15 62.1 °F 56.9 °F 29.92 in Calm   3.0 mph 83% 0.00 in CLR
07:30 62.6 °F 57.0 °F 29.92 in SW 1.0 mph 3.0 mph 82% 0.00 in CLR
07:45 63.7 °F 56.7 °F 29.93 in Calm   5.0 mph 78% 0.00 in CLR
08:00 64.5 °F 56.8 °F 29.93 in Calm   4.0 mph 76% 0.00 in CLR
08:15 64.8 °F 55.6 °F 29.93 in Calm   4.0 mph 72% 0.00 in CLR
08:30 64.6 °F 55.0 °F 29.94 in Calm   7.0 mph 71% 0.00 in CLR
08:45 64.8 °F 51.9 °F 29.93 in NE 1.0 mph 4.0 mph 63% 0.00 in CLR
09:00 65.0 °F 52.1 °F 29.94 in North 1.0 mph 10.0 mph 63% 0.00 in CLR
09:15 64.6 °F 52.5 °F 29.94 in SW 1.0 mph 8.0 mph 65% 0.00 in FEW
09:30 63.8 °F 50.9 °F 29.95 in NNE 1.0 mph 7.0 mph 63% 0.00 in FEW
09:45 63.9 °F 48.8 °F 29.95 in NW 2.0 mph 8.0 mph 58% 0.00 in FEW
10:00 64.3 °F 48.3 °F 29.96 in NNE 1.0 mph 8.0 mph 56% 0.00 in FEW
10:15 64.9 °F 47.4 °F 29.96 in NW 2.0 mph 6.0 mph 53% 0.00 in FEW
10:30 65.0 °F 46.4 °F 29.96 in NNW 3.0 mph 7.0 mph 51% 0.00 in FEW
10:45 65.6 °F 45.4 °F 29.97 in NNW 2.0 mph 12.0 mph 48% 0.00 in FEW
11:00 67.4 °F 45.9 °F 29.97 in NW 2.0 mph 7.0 mph 46% 0.00 in FEW
11:15 67.6 °F 43.7 °F 29.97 in NNW 3.0 mph 8.0 mph 42% 0.00 in FEW
11:30 68.0 °F 42.1 °F 29.97 in North 5.0 mph 12.0 mph 39% 0.00 in FEW
11:45 68.3 °F 43.1 °F 29.97 in North 2.0 mph 12.0 mph 40% 0.00 in FEW
12:00 67.7 °F 43.1 °F 29.98 in NE 3.0 mph 9.0 mph 41% 0.00 in FEW
12:15 67.1 °F 43.2 °F 29.97 in NW 5.0 mph 8.0 mph 42% 0.00 in FEW
12:30 66.8 °F 44.2 °F 29.97 in NNW 1.0 mph 6.0 mph 44% 0.00 in FEW
12:45 67.1 °F 43.2 °F 29.97 in SE 3.0 mph 9.0 mph 42% 0.00 in FEW
13:00 67.9 °F 44.0 °F 29.96 in ESE 2.0 mph 10.0 mph 42% 0.00 in FEW
13:15 68.6 °F 42.6 °F 29.95 in East 1.0 mph 9.0 mph 39% 0.00 in SCT
13:30 68.0 °F 39.3 °F 29.96 in NE 3.0 mph 13.0 mph 35% 0.00 in SCT
13:45 68.0 °F 40.0 °F 29.95 in Calm   13.0 mph 36% 0.00 in SCT
14:00 68.9 °F 38.6 °F 29.95 in North 3.0 mph 11.0 mph 33% 0.00 in SCT
14:15 69.0 °F 36.3 °F 29.95 in NW 6.0 mph 12.0 mph 30% 0.00 in BKN
14:30 69.2 °F 34.7 °F 29.96 in NW 8.0 mph 13.0 mph 28% 0.00 in BKN
14:45 68.0 °F 34.6 °F 29.97 in NNW 6.0 mph 14.0 mph 29% 0.00 in BKN
15:00 68.3 °F 33.9 °F 29.97 in NNE 3.0 mph 17.0 mph 28% 0.00 in BKN
15:15 68.5 °F 35.0 °F 29.97 in NNW 3.0 mph 12.0 mph 29% 0.00 in SCT
15:30 68.4 °F 34.8 °F 29.96 in WNW 2.0 mph 13.0 mph 29% 0.00 in SCT
15:45 69.2 °F 35.6 °F 29.96 in NNE 3.0 mph 14.0 mph 29% 0.00 in SCT
16:00 69.1 °F 35.5 °F 29.97 in NNW 3.0 mph 14.0 mph 29% 0.00 in SCT
16:15 67.5 °F 35.8 °F 29.97 in NNE 3.0 mph 12.0 mph 31% 0.00 in SCT
16:30 67.3 °F 35.6 °F 29.97 in NW 2.0 mph 10.0 mph 31% 0.00 in SCT
16:45 67.6 °F 35.8 °F 29.97 in WNW 1.0 mph 6.0 mph 31% 0.00 in SCT
17:00 68.8 °F 35.2 °F 29.97 in NNW 2.0 mph 7.0 mph 29% 0.00 in SCT
17:15 69.4 °F 35.8 °F 29.98 in NW 1.0 mph 6.0 mph 29% 0.00 in FEW
17:30 69.7 °F 36.0 °F 29.98 in NE 3.0 mph 12.0 mph 29% 0.00 in FEW
17:45 69.7 °F 35.1 °F 29.99 in WSW 5.0 mph 13.0 mph 28% 0.00 in FEW
18:00 69.0 °F 37.1 °F 30.00 in WNW 3.0 mph 13.0 mph 31% 0.00 in FEW
18:15 67.9 °F 35.3 °F 30.01 in NE 5.0 mph 13.0 mph 30% 0.00 in CLR
18:30 67.2 °F 35.6 °F 30.02 in North 5.0 mph 17.0 mph 31% 0.00 in CLR
18:45 66.3 °F 33.1 °F 30.03 in WNW 3.0 mph 20.0 mph 29% 0.00 in CLR
19:00 64.9 °F 31.9 °F 30.04 in North 6.0 mph 13.0 mph 29% 0.00 in CLR
19:15 64.0 °F 33.5 °F 30.05 in NNW 3.0 mph 10.0 mph 32% 0.00 in CLR
19:30 63.3 °F 33.7 °F 30.05 in North 5.0 mph 10.0 mph 33% 0.00 in CLR
19:45 62.5 °F 33.0 °F 30.07 in North 3.0 mph 14.0 mph 33% 0.00 in CLR
20:00 61.9 °F 30.9 °F 30.08 in NNW 5.0 mph 12.0 mph 31% 0.00 in CLR
20:15 62.0 °F 30.2 °F 30.08 in NE 2.0 mph 14.0 mph 30% 0.00 in CLR
20:30 61.6 °F 30.6 °F 30.09 in North 2.0 mph 10.0 mph 31% 0.00 in CLR
20:45 61.2 °F 30.3 °F 30.10 in NNW 3.0 mph 9.0 mph 31% 0.00 in CLR
21:00 61.3 °F 29.6 °F 30.11 in North 1.0 mph 12.0 mph 30% 0.00 in CLR
21:15 61.1 °F 30.2 °F 30.12 in NNE 3.0 mph 9.0 mph 31% 0.00 in CLR
21:30 60.9 °F 29.2 °F 30.12 in NNW 5.0 mph 14.0 mph 30% 0.00 in CLR
21:45 60.4 °F 29.6 °F 30.13 in Calm   9.0 mph 31% 0.00 in CLR
22:00 59.8 °F 29.9 °F 30.13 in Calm   13.0 mph 32% 0.00 in CLR
22:15 59.1 °F 30.0 °F 30.14 in NNE 3.0 mph 9.0 mph 33% 0.00 in CLR
22:30 58.8 °F 30.5 °F 30.15 in North 2.0 mph 9.0 mph 34% 0.00 in CLR
22:45 58.5 °F 30.9 °F 30.15 in North 2.0 mph 12.0 mph 35% 0.00 in CLR
23:00 58.0 °F 30.5 °F 30.15 in NNE 2.0 mph 9.0 mph 35% 0.00 in CLR
23:15 57.3 °F 32.6 °F 30.15 in North 2.0 mph 8.0 mph 39% 0.00 in CLR
23:30 56.5 °F 33.1 °F 30.16 in NNW 2.0 mph 12.0 mph 41% 0.00 in CLR
23:45 55.8 °F 34.2 °F 30.16 in North 1.0 mph 9.0 mph 44% 0.00 in CLR
TarryTown NY Weather
Compliments of Weather Underground - 1.5 mb